createdAt,value
2019-05-22T00:01:41.653Z,5.03
2019-05-22T00:04:11.125Z,4.40
2019-05-22T00:06:39.913Z,5.93
2019-05-22T00:09:08.710Z,4.75
2019-05-22T00:11:36.714Z,5.40
2019-05-22T00:14:04.741Z,4.62
2019-05-22T00:16:33.254Z,6.65
2019-05-22T00:19:01.293Z,6.28
2019-05-22T00:21:30.092Z,4.85
2019-05-22T00:23:58.873Z,6.12
2019-05-22T00:26:27.673Z,5.10
2019-05-22T00:28:56.465Z,5.40
2019-05-22T00:31:24.492Z,5.43
2019-05-22T00:33:52.541Z,5.15
2019-05-22T00:36:20.581Z,4.90
2019-05-22T00:38:48.621Z,5.50
2019-05-22T00:41:17.414Z,5.53
2019-05-22T00:43:45.421Z,4.90
2019-05-22T00:46:17.080Z,5.07
2019-05-22T00:48:45.105Z,5.50
2019-05-22T00:51:15.741Z,6.18
2019-05-22T00:57:01.204Z,6.00
2019-05-22T00:59:33.125Z,7.28
2019-05-22T01:02:02.088Z,7.78
2019-05-22T01:04:34.810Z,8.77
2019-05-22T01:07:02.865Z,12.15
2019-05-22T01:09:31.410Z,10.18
2019-05-22T01:11:59.430Z,10.55
2019-05-22T01:14:42.031Z,13.18
2019-05-22T01:16:56.279Z,14.43
2019-05-22T01:19:24.330Z,14.95
2019-05-22T01:21:53.141Z,15.65
2019-05-22T01:24:21.185Z,18.33
2019-05-22T01:26:49.225Z,19.23
2019-05-22T01:29:18.054Z,21.48
2019-05-22T01:31:46.925Z,21.85
2019-05-22T01:34:18.759Z,22.67
2019-05-22T01:36:46.806Z,26.35
2019-05-22T01:39:17.426Z,23.62
2019-05-22T01:41:45.569Z,24.80
2019-05-22T01:44:14.345Z,28.33
2019-05-22T01:46:42.407Z,27.27
2019-05-22T01:49:10.425Z,29.63
2019-05-22T01:51:38.461Z,28.87
2019-05-22T01:54:06.523Z,30.62
2019-05-22T01:56:34.570Z,35.53
2019-05-22T01:59:03.405Z,34.85
2019-05-22T02:01:31.461Z,33.17
2019-05-22T02:03:59.485Z,36.10
2019-05-22T02:06:27.697Z,35.80
2019-05-22T02:09:01.250Z,33.83
2019-05-22T02:11:29.266Z,33.70
2019-05-22T02:14:04.066Z,36.58
2019-05-22T02:16:32.082Z,36.23
2019-05-22T02:19:00.129Z,38.00
2019-05-22T02:21:28.933Z,38.22
2019-05-22T02:23:56.967Z,36.35
2019-05-22T02:26:25.773Z,34.47
2019-05-22T02:28:53.834Z,36.47
2019-05-22T02:31:22.650Z,35.83
2019-05-22T02:33:56.471Z,36.35
2019-05-22T02:36:24.511Z,39.60
2019-05-22T02:38:52.581Z,33.55
2019-05-22T02:41:21.386Z,35.08
2019-05-22T02:43:49.425Z,36.53
2019-05-22T02:46:18.337Z,34.78
2019-05-22T02:48:46.378Z,33.88
2019-05-22T02:51:15.203Z,34.58
2019-05-22T02:53:43.260Z,36.95
2019-05-22T02:56:11.334Z,36.47
2019-05-22T02:58:39.431Z,38.92
2019-05-22T03:01:07.462Z,34.88
2019-05-22T03:03:35.506Z,39.22
2019-05-22T03:06:03.558Z,40.10
2019-05-22T03:08:32.525Z,43.20
2019-05-22T03:11:00.570Z,42.13
2019-05-22T03:13:40.492Z,46.17
2019-05-22T03:16:09.331Z,51.17
2019-05-22T03:18:38.137Z,54.27
2019-05-22T03:21:06.166Z,53.72
2019-05-22T03:23:35.587Z,54.43
2019-05-22T03:26:04.389Z,57.67
2019-05-22T03:28:32.427Z,59.38
2019-05-22T03:31:00.486Z,59.42
2019-05-22T03:33:29.287Z,57.88
2019-05-22T03:36:13.137Z,59.10
2019-05-22T03:38:41.190Z,57.25
2019-05-22T03:41:09.997Z,60.78
2019-05-22T03:43:38.052Z,59.70
2019-05-22T03:46:19.948Z,63.80
2019-05-22T03:48:48.756Z,61.83
2019-05-22T03:51:16.811Z,69.35
2019-05-22T03:53:44.852Z,74.03
2019-05-22T03:56:13.654Z,70.37
2019-05-22T03:58:41.731Z,69.57
2019-05-22T04:01:10.541Z,75.62
2019-05-22T04:03:38.646Z,75.78
2019-05-22T04:06:06.787Z,76.87
2019-05-22T04:08:34.933Z,80.68
2019-05-22T04:11:02.979Z,88.70
2019-05-22T04:13:31.002Z,88.60
2019-05-22T04:15:59.041Z,89.70
2019-05-22T04:18:27.103Z,86.45
2019-05-22T04:20:55.907Z,94.03
2019-05-22T04:23:23.962Z,93.55
2019-05-22T04:25:53.512Z,96.05
2019-05-22T04:28:20.036Z,89.72
2019-05-22T04:30:48.088Z,85.30
2019-05-22T04:33:16.151Z,80.78
2019-05-22T04:35:44.189Z,83.50
2019-05-22T04:38:12.248Z,83.40
2019-05-22T04:40:44.976Z,83.95
2019-05-22T04:43:13.077Z,83.28
2019-05-22T04:45:41.112Z,80.32
2019-05-22T04:48:09.182Z,84.30
2019-05-22T04:50:37.207Z,78.27
2019-05-22T04:53:05.294Z,78.37
2019-05-22T04:55:33.354Z,81.25
2019-05-22T04:58:01.386Z,75.60
2019-05-22T05:00:29.426Z,81.37
2019-05-22T05:02:57.482Z,73.75
2019-05-22T05:05:26.320Z,72.93
2019-05-22T05:07:54.361Z,69.95
2019-05-22T05:10:22.451Z,67.43
2019-05-22T05:12:51.255Z,62.45
2019-05-22T05:15:19.284Z,61.17
2019-05-22T05:17:47.332Z,61.50
2019-05-22T05:20:22.472Z,60.55
2019-05-22T05:22:43.503Z,63.10
2019-05-22T05:25:11.569Z,58.67
2019-05-22T05:27:39.610Z,59.00
2019-05-22T05:30:07.710Z,61.05
2019-05-22T05:32:35.754Z,61.22
2019-05-22T05:35:04.490Z,61.37
2019-05-22T05:37:32.537Z,59.60
2019-05-22T05:40:22.225Z,62.10
2019-05-22T05:42:50.299Z,63.45
2019-05-22T05:45:19.182Z,66.47
2019-05-22T05:47:47.298Z,61.28
2019-05-22T05:50:15.341Z,62.13
2019-05-22T05:52:43.378Z,62.92
2019-05-22T05:55:12.216Z,65.97
2019-05-22T06:00:55.949Z,66.40
2019-05-22T06:03:27.518Z,62.08
2019-05-22T06:05:55.534Z,61.33
2019-05-22T06:08:24.357Z,68.12
2019-05-22T06:11:12.525Z,65.73
2019-05-22T06:13:40.625Z,68.60
2019-05-22T06:19:05.270Z,63.23
2019-05-22T06:21:33.337Z,60.33
2019-05-22T06:24:13.883Z,56.67
2019-05-22T06:26:44.427Z,57.33
2019-05-22T06:29:12.466Z,57.62
2019-05-22T06:31:43.012Z,60.03
2019-05-22T06:34:11.847Z,56.53
2019-05-22T06:36:39.985Z,51.65
2019-05-22T06:39:08.045Z,52.08
2019-05-22T06:41:36.885Z,53.40
2019-05-22T06:44:16.770Z,48.75
2019-05-22T06:46:45.681Z,49.55
2019-05-22T06:49:39.471Z,43.08
2019-05-22T06:52:07.537Z,47.40
2019-05-22T06:54:35.572Z,49.03
2019-05-22T06:57:03.654Z,50.97
2019-05-22T06:59:32.582Z,48.45
2019-05-22T07:02:01.767Z,44.92
2019-05-22T07:04:28.697Z,42.58
2019-05-22T07:06:56.760Z,42.25
2019-05-22T07:09:24.822Z,42.08
2019-05-22T07:11:53.634Z,44.10
2019-05-22T07:14:21.703Z,44.83
2019-05-22T07:16:49.806Z,44.97
2019-05-22T07:19:17.829Z,47.17
2019-05-22T07:21:45.869Z,42.90
2019-05-22T07:24:13.978Z,46.13
2019-05-22T07:26:42.073Z,44.58
2019-05-22T07:29:10.842Z,48.83
2019-05-22T07:31:38.893Z,49.08
2019-05-22T07:34:07.725Z,46.50
2019-05-22T07:36:35.778Z,47.38
2019-05-22T07:39:04.559Z,49.00
2019-05-22T07:41:32.621Z,50.90
2019-05-22T07:44:00.702Z,52.92
2019-05-22T07:46:30.962Z,53.28
2019-05-22T07:48:56.969Z,52.28
2019-05-22T07:51:25.020Z,54.72
2019-05-22T07:53:53.078Z,57.25
2019-05-22T07:56:21.125Z,57.60
2019-05-22T07:58:49.982Z,56.42
2019-05-22T08:01:18.096Z,60.17
2019-05-22T08:03:46.079Z,59.75
2019-05-22T08:06:14.126Z,60.00
2019-05-22T08:08:42.129Z,57.03
2019-05-22T08:11:10.205Z,57.13
2019-05-22T08:13:38.254Z,57.40
2019-05-22T08:16:06.319Z,57.15
2019-05-22T08:18:34.394Z,56.55
2019-05-22T08:21:02.849Z,52.97
2019-05-22T08:23:31.470Z,46.77
2019-05-22T08:25:59.636Z,44.42
2019-05-22T08:28:28.429Z,46.50
2019-05-22T08:30:56.475Z,47.72
2019-05-22T08:33:25.999Z,41.53
2019-05-22T08:35:54.057Z,38.53
2019-05-22T08:38:25.633Z,39.63
2019-05-22T08:40:53.694Z,37.85
2019-05-22T08:43:21.738Z,36.80
2019-05-22T08:45:49.758Z,39.13
2019-05-22T08:48:17.806Z,36.95
2019-05-22T08:50:45.858Z,36.38
2019-05-22T08:53:14.665Z,37.72
2019-05-22T08:55:42.718Z,38.22
2019-05-22T08:58:10.867Z,40.85
2019-05-22T09:00:38.862Z,40.88
2019-05-22T09:03:07.660Z,39.83
2019-05-22T09:05:35.698Z,43.92
2019-05-22T09:08:03.826Z,43.13
2019-05-22T09:10:31.855Z,40.05
2019-05-22T09:13:00.866Z,38.78
2019-05-22T09:15:28.830Z,41.17
2019-05-22T09:17:56.952Z,35.67
2019-05-22T09:20:24.941Z,35.47
2019-05-22T09:22:53.754Z,37.95
2019-05-22T09:25:21.775Z,38.00
2019-05-22T09:27:49.836Z,38.47
2019-05-22T09:30:17.888Z,36.08
2019-05-22T09:32:47.680Z,37.88
2019-05-22T09:35:13.971Z,42.30
2019-05-22T09:37:42.002Z,41.17
2019-05-22T09:40:10.144Z,43.22
2019-05-22T09:42:38.214Z,43.60
2019-05-22T09:45:06.938Z,40.13
2019-05-22T09:47:34.994Z,38.75
2019-05-22T09:50:03.110Z,41.20
2019-05-22T09:52:31.150Z,34.80
2019-05-22T09:54:59.235Z,34.63
2019-05-22T09:57:27.282Z,31.30
2019-05-22T09:59:55.452Z,32.20
2019-05-22T10:02:24.313Z,29.87
2019-05-22T10:04:52.379Z,29.77
2019-05-22T10:07:20.390Z,29.13
2019-05-22T10:09:48.441Z,30.30
2019-05-22T10:12:16.491Z,31.92
2019-05-22T10:14:44.698Z,28.98
2019-05-22T10:17:12.644Z,32.85
2019-05-22T10:19:41.446Z,30.60
2019-05-22T10:22:09.509Z,27.35
2019-05-22T10:24:37.574Z,26.40
2019-05-22T10:27:05.633Z,28.05
2019-05-22T10:29:33.787Z,29.37
2019-05-22T10:32:01.741Z,29.73
2019-05-22T10:34:30.255Z,29.58
2019-05-22T10:36:58.302Z,26.62
2019-05-22T10:39:27.145Z,27.15
2019-05-22T10:41:55.181Z,27.70
2019-05-22T10:44:23.222Z,30.58
2019-05-22T10:46:51.377Z,28.58
2019-05-22T10:49:19.510Z,28.87
2019-05-22T10:51:47.598Z,31.73
2019-05-22T10:54:15.650Z,30.35
2019-05-22T10:56:43.694Z,29.48
2019-05-22T10:59:12.554Z,29.10
2019-05-22T11:01:40.630Z,31.02
2019-05-22T11:04:08.742Z,30.25
2019-05-22T11:06:36.800Z,33.45
2019-05-22T11:09:05.602Z,28.38
2019-05-22T11:11:33.678Z,31.05
2019-05-22T11:14:02.221Z,27.42
2019-05-22T11:16:29.837Z,29.58
2019-05-22T11:18:57.957Z,28.30
2019-05-22T11:21:26.158Z,28.45
2019-05-22T11:23:54.319Z,25.25
2019-05-22T11:26:22.398Z,25.00
2019-05-22T11:28:50.450Z,25.55
2019-05-22T11:31:19.258Z,23.65
2019-05-22T11:33:47.299Z,24.77
2019-05-22T11:36:15.412Z,28.95
2019-05-22T11:38:43.507Z,25.85
2019-05-22T11:41:11.545Z,27.23
2019-05-22T11:43:39.650Z,27.77
2019-05-22T11:46:07.698Z,34.58
2019-05-22T11:48:35.787Z,31.92
2019-05-22T11:51:03.856Z,29.25
2019-05-22T11:53:31.925Z,28.67
2019-05-22T11:56:00.032Z,29.48
2019-05-22T11:58:28.148Z,28.25
2019-05-22T12:00:56.681Z,25.10
2019-05-22T12:03:24.815Z,27.20
2019-05-22T12:05:53.603Z,28.50
2019-05-22T12:08:22.426Z,26.10
2019-05-22T12:10:50.558Z,26.62
2019-05-22T12:13:18.593Z,29.63
2019-05-22T12:15:47.445Z,30.00
2019-05-22T12:18:28.103Z,25.63
2019-05-22T12:21:07.251Z,25.20
2019-05-22T12:23:35.311Z,27.25
2019-05-22T12:26:03.463Z,26.23
2019-05-22T12:28:31.638Z,24.37
2019-05-22T12:30:59.746Z,26.35
2019-05-22T12:33:27.790Z,26.08
2019-05-22T12:35:55.802Z,26.83
2019-05-22T12:38:26.952Z,26.87
2019-05-22T12:40:52.677Z,26.95
2019-05-22T12:43:20.762Z,25.27
2019-05-22T12:45:49.553Z,24.47
2019-05-22T12:48:17.601Z,27.08
2019-05-22T12:50:45.647Z,26.20
2019-05-22T12:53:14.460Z,24.90
2019-05-22T12:55:42.521Z,24.92
2019-05-22T12:58:11.439Z,24.95
2019-05-22T13:00:39.481Z,27.02
2019-05-22T13:03:08.289Z,27.27
2019-05-22T13:05:36.345Z,24.63
2019-05-22T13:08:05.137Z,23.10
2019-05-22T13:10:33.209Z,27.87
2019-05-22T13:13:01.199Z,24.50
2019-05-22T13:15:29.246Z,24.70
2019-05-22T13:17:57.285Z,23.40
2019-05-22T13:20:41.256Z,23.25
2019-05-22T13:22:53.370Z,23.98
2019-05-22T13:25:21.417Z,24.42
2019-05-22T13:27:50.319Z,20.37
2019-05-22T13:30:18.378Z,21.92
2019-05-22T13:32:47.477Z,22.17
2019-05-22T13:35:15.530Z,20.23
2019-05-22T13:37:44.421Z,21.77
2019-05-22T13:40:26.667Z,21.00
2019-05-22T13:42:40.489Z,19.58
2019-05-22T13:45:08.544Z,21.27
2019-05-22T13:47:37.449Z,18.48
2019-05-22T13:50:05.503Z,18.02
2019-05-22T13:52:33.562Z,16.35
2019-05-22T13:55:02.371Z,17.33
2019-05-22T13:57:30.447Z,16.37
2019-05-22T13:59:58.515Z,15.25
2019-05-22T14:02:27.411Z,17.02
2019-05-22T14:04:54.706Z,15.20
2019-05-22T14:07:22.758Z,15.73
2019-05-22T14:09:50.811Z,16.95
2019-05-22T14:12:18.850Z,17.33
2019-05-22T14:14:47.658Z,21.58
2019-05-22T14:17:15.750Z,17.00
2019-05-22T14:19:43.814Z,16.25
2019-05-22T14:22:11.858Z,15.65
2019-05-22T14:24:39.910Z,16.75
2019-05-22T14:27:08.717Z,18.62
2019-05-22T14:29:36.767Z,14.73
2019-05-22T14:32:05.567Z,16.58
2019-05-22T14:34:33.654Z,16.80
2019-05-22T14:37:01.703Z,14.25
2019-05-22T14:39:30.512Z,17.17
2019-05-22T14:41:58.583Z,16.37
2019-05-22T14:44:26.626Z,13.35
2019-05-22T14:46:55.469Z,17.98
2019-05-22T14:49:23.510Z,14.82
2019-05-22T14:51:52.291Z,14.73
2019-05-22T14:54:20.334Z,13.32
2019-05-22T14:56:49.250Z,13.45
2019-05-22T14:59:18.066Z,12.43
2019-05-22T15:01:46.109Z,13.15
2019-05-22T15:04:14.142Z,17.33
2019-05-22T15:06:42.527Z,11.15
2019-05-22T15:09:10.273Z,10.95
2019-05-22T15:11:38.363Z,11.20
2019-05-22T15:14:06.467Z,10.20
2019-05-22T15:16:34.514Z,8.82
2019-05-22T15:19:03.329Z,8.40
2019-05-22T15:21:31.391Z,9.57
2019-05-22T15:24:00.181Z,8.45
2019-05-22T15:26:28.260Z,9.18
2019-05-22T15:28:56.335Z,11.00
2019-05-22T15:31:24.391Z,12.25
2019-05-22T15:33:52.453Z,8.70
2019-05-22T15:36:21.281Z,8.57
2019-05-22T15:38:49.317Z,9.10
2019-05-22T15:41:18.126Z,9.30
2019-05-22T15:43:51.540Z,8.25
2019-05-22T15:46:14.999Z,8.82
2019-05-22T15:48:43.044Z,8.93
2019-05-22T15:51:11.090Z,10.40
2019-05-22T15:53:39.894Z,10.13
2019-05-22T15:56:08.674Z,11.27
2019-05-22T15:58:37.021Z,11.05
2019-05-22T16:01:04.839Z,10.98
2019-05-22T16:03:32.882Z,11.38
2019-05-22T16:06:01.756Z,10.77
2019-05-22T16:08:29.758Z,9.13
2019-05-22T16:11:00.168Z,8.55
2019-05-22T16:13:26.590Z,9.20
2019-05-22T16:15:55.410Z,9.77
2019-05-22T16:18:26.245Z,9.52
2019-05-22T16:20:55.109Z,10.03
2019-05-22T16:23:23.939Z,9.50
2019-05-22T16:25:51.995Z,9.73
2019-05-22T16:28:20.062Z,10.05
2019-05-22T16:30:48.095Z,10.45
2019-05-22T16:33:16.899Z,11.70
2019-05-22T16:35:44.965Z,12.15
2019-05-22T16:38:12.993Z,12.37
2019-05-22T16:40:41.030Z,12.18
2019-05-22T16:43:09.182Z,10.43
2019-05-22T16:45:37.220Z,11.02
2019-05-22T16:48:05.389Z,10.85
2019-05-22T16:50:33.456Z,11.48
2019-05-22T16:53:01.586Z,11.52
2019-05-22T16:55:30.360Z,11.10
2019-05-22T16:57:58.452Z,12.32
2019-05-22T17:00:26.476Z,11.70
2019-05-22T17:02:54.563Z,12.40
2019-05-22T17:05:22.569Z,11.17
2019-05-22T17:07:50.663Z,10.82
2019-05-22T17:10:18.710Z,11.75
2019-05-22T17:12:46.913Z,11.15
2019-05-22T17:15:16.277Z,10.88
2019-05-22T17:17:44.324Z,12.20
2019-05-22T17:20:12.373Z,14.30
2019-05-22T17:22:41.217Z,13.57
2019-05-22T17:25:09.266Z,13.75
2019-05-22T17:27:37.316Z,12.40
2019-05-22T17:30:05.404Z,12.23
2019-05-22T17:32:33.450Z,13.60
2019-05-22T17:35:02.364Z,11.82
2019-05-22T17:37:30.642Z,15.93
2019-05-22T17:39:58.704Z,13.37
2019-05-22T17:42:27.519Z,14.48
2019-05-22T17:44:55.563Z,12.55
2019-05-22T17:47:23.641Z,11.85
2019-05-22T17:49:52.447Z,14.50
2019-05-22T17:52:20.503Z,13.43
2019-05-22T17:54:48.583Z,12.93
2019-05-22T17:57:16.650Z,14.55
2019-05-22T17:59:44.718Z,13.50
2019-05-22T18:02:12.765Z,13.15
2019-05-22T18:04:40.797Z,12.50
2019-05-22T18:07:08.836Z,12.82
2019-05-22T18:09:36.849Z,14.47
2019-05-22T18:12:05.666Z,14.65
2019-05-22T18:14:33.748Z,11.32
2019-05-22T18:17:02.557Z,13.55
2019-05-22T18:19:30.613Z,11.95
2019-05-22T18:21:58.653Z,11.63
2019-05-22T18:24:26.693Z,10.80
2019-05-22T18:26:54.806Z,10.82
2019-05-22T18:29:23.706Z,11.00
2019-05-22T18:31:51.737Z,10.15
2019-05-22T18:34:39.570Z,10.60
2019-05-22T18:37:09.841Z,13.05
2019-05-22T18:39:37.895Z,11.68
2019-05-22T18:42:06.782Z,11.85
2019-05-22T18:44:34.750Z,11.83
2019-05-22T18:47:02.885Z,10.75
2019-05-22T18:49:30.946Z,14.02
2019-05-22T18:51:58.970Z,10.90
2019-05-22T18:54:27.036Z,12.80
2019-05-22T18:59:59.925Z,12.68
2019-05-22T19:02:21.985Z,13.15
2019-05-22T19:04:50.133Z,11.32
2019-05-22T19:07:18.725Z,13.52
2019-05-22T19:09:46.819Z,12.70
2019-05-22T19:12:14.836Z,11.30
2019-05-22T19:14:43.668Z,10.60
2019-05-22T19:17:11.692Z,12.50
2019-05-22T19:19:40.539Z,12.13
2019-05-22T19:25:06.339Z,16.80
2019-05-22T19:27:35.146Z,14.13
2019-05-22T19:30:03.202Z,16.52
2019-05-22T19:32:31.265Z,17.95
2019-05-22T19:34:59.332Z,18.25
2019-05-22T19:37:27.426Z,20.30
2019-05-22T19:39:55.472Z,29.52
2019-05-22T19:42:24.277Z,37.60
2019-05-22T19:44:52.333Z,32.65
2019-05-22T19:47:20.373Z,32.50
2019-05-22T19:49:48.479Z,33.95
2019-05-22T19:52:21.627Z,24.30
2019-05-22T19:54:46.213Z,25.27
2019-05-22T19:57:14.385Z,23.87
2019-05-22T19:59:42.429Z,23.00
2019-05-22T20:02:10.495Z,24.80
2019-05-22T20:04:38.553Z,23.23
2019-05-22T20:07:07.533Z,24.05
2019-05-22T20:09:35.602Z,21.73
2019-05-22T20:12:03.663Z,18.95
2019-05-22T20:14:32.458Z,21.80
2019-05-22T20:17:00.489Z,18.90
2019-05-22T20:19:28.522Z,16.10
2019-05-22T20:21:59.975Z,15.90
2019-05-22T20:24:24.621Z,18.17
2019-05-22T20:26:53.433Z,18.02
2019-05-22T20:29:21.490Z,17.37
2019-05-22T20:31:49.530Z,16.62
2019-05-22T20:34:17.582Z,17.58
2019-05-22T20:36:45.590Z,16.93
2019-05-22T20:39:14.408Z,17.50
2019-05-22T20:41:43.192Z,17.20
2019-05-22T20:44:11.309Z,17.42
2019-05-22T20:46:40.761Z,18.52
2019-05-22T20:49:09.534Z,17.20
2019-05-22T20:51:37.582Z,17.12
2019-05-22T20:54:05.594Z,15.87
2019-05-22T20:56:33.642Z,19.48
2019-05-22T20:59:02.444Z,14.65
2019-05-22T21:01:30.499Z,16.67
2019-05-22T21:03:59.301Z,14.20
2019-05-22T21:06:27.350Z,16.70
2019-05-22T21:08:56.149Z,15.40
2019-05-22T21:11:24.194Z,14.60
2019-05-22T21:13:53.014Z,17.10
2019-05-22T21:16:21.071Z,15.63
2019-05-22T21:18:49.869Z,14.13
2019-05-22T21:21:17.926Z,14.68
2019-05-22T21:23:46.743Z,15.50
2019-05-22T21:26:14.803Z,15.73
2019-05-22T21:28:42.881Z,15.18
2019-05-22T21:31:10.924Z,15.15
2019-05-22T21:33:39.729Z,16.75
2019-05-22T21:36:07.778Z,13.68
2019-05-22T21:38:36.587Z,12.43
2019-05-22T21:41:04.699Z,13.62
2019-05-22T21:43:32.826Z,13.43
2019-05-22T21:46:01.609Z,13.57
2019-05-22T21:48:29.654Z,13.30
2019-05-22T21:50:57.681Z,14.97
2019-05-22T21:53:25.722Z,15.38
2019-05-22T21:56:04.235Z,13.98
2019-05-22T21:58:22.580Z,13.23
2019-05-22T22:03:50.214Z,13.32
2019-05-22T22:06:18.262Z,13.77
2019-05-22T22:08:46.317Z,12.05
2019-05-22T22:11:14.711Z,13.48
2019-05-22T22:13:42.733Z,13.40
2019-05-22T22:16:11.580Z,12.85
2019-05-22T22:18:39.620Z,12.27
2019-05-22T22:21:07.795Z,14.02
2019-05-22T22:23:35.846Z,13.45
2019-05-22T22:26:20.501Z,13.23
2019-05-22T22:28:32.689Z,12.20
2019-05-22T22:31:03.310Z,13.55
2019-05-22T22:33:31.373Z,11.85
2019-05-22T22:35:59.414Z,13.07
2019-05-22T22:38:27.476Z,11.63
2019-05-22T22:40:55.519Z,12.55
2019-05-22T22:43:26.747Z,10.83
2019-05-22T22:46:10.466Z,11.52
2019-05-22T22:48:38.491Z,12.48
2019-05-22T22:51:06.538Z,12.35
2019-05-22T22:53:34.609Z,12.05
2019-05-22T22:56:02.680Z,16.00
2019-05-22T22:58:30.745Z,10.82
2019-05-22T23:00:59.588Z,10.25
2019-05-22T23:03:27.650Z,9.88
2019-05-22T23:05:55.716Z,10.20
2019-05-22T23:08:25.534Z,10.07
2019-05-22T23:10:53.559Z,9.25
2019-05-22T23:13:22.351Z,8.95
2019-05-22T23:15:50.418Z,9.77
2019-05-22T23:21:31.513Z,8.88
2019-05-22T23:23:59.867Z,8.55
2019-05-22T23:26:27.992Z,9.43
2019-05-22T23:28:56.056Z,9.27
2019-05-22T23:31:24.073Z,9.60
2019-05-22T23:33:52.096Z,8.75
2019-05-22T23:36:20.131Z,8.93
2019-05-22T23:38:48.951Z,9.43
2019-05-22T23:41:17.017Z,9.63
2019-05-22T23:43:45.130Z,9.65
2019-05-22T23:46:13.151Z,9.18
2019-05-22T23:48:41.196Z,8.70
2019-05-22T23:51:09.270Z,9.27
2019-05-22T23:53:38.077Z,14.48
2019-05-22T23:56:06.867Z,12.50
2019-05-22T23:58:51.240Z,11.07
